createdAt,value
2018-09-28T00:01:37.795Z,4.57
2018-09-28T00:04:05.049Z,5.13
2018-09-28T00:06:32.250Z,12.80
2018-09-28T00:08:59.425Z,6.33
2018-09-28T00:11:26.696Z,5.27
2018-09-28T00:13:53.816Z,3.40
2018-09-28T00:16:20.940Z,5.07
2018-09-28T00:18:48.047Z,7.33
2018-09-28T00:21:15.179Z,5.10
2018-09-28T00:23:42.294Z,6.97
2018-09-28T00:26:09.447Z,5.87
2018-09-28T00:28:36.694Z,5.53
2018-09-28T00:31:03.852Z,4.00
2018-09-28T00:33:30.972Z,6.43
2018-09-28T00:35:58.188Z,4.43
2018-09-28T00:38:25.355Z,6.00
2018-09-28T00:40:52.491Z,7.07
2018-09-28T00:43:26.304Z,6.17
2018-09-28T00:45:53.441Z,7.30
2018-09-28T00:48:27.261Z,4.50
2018-09-28T00:50:54.462Z,6.50
2018-09-28T00:53:21.574Z,4.20
2018-09-28T00:55:48.694Z,8.57
2018-09-28T00:58:15.806Z,6.20
2018-09-28T01:00:42.915Z,5.07
2018-09-28T01:03:10.014Z,6.40
2018-09-28T01:05:37.119Z,5.53
2018-09-28T01:08:04.278Z,2.73
2018-09-28T01:10:31.403Z,7.50
2018-09-28T01:12:58.562Z,3.83
2018-09-28T01:15:25.724Z,3.67
2018-09-28T01:17:52.835Z,3.63
2018-09-28T01:20:19.958Z,4.40
2018-09-28T01:22:47.095Z,4.10
2018-09-28T01:25:14.362Z,4.67
2018-09-28T01:27:41.491Z,3.70
2018-09-28T01:30:08.621Z,3.73
2018-09-28T01:32:35.768Z,7.27
2018-09-28T01:35:02.963Z,4.87
2018-09-28T01:37:30.123Z,4.23
2018-09-28T01:39:57.296Z,8.00
2018-09-28T01:42:24.430Z,4.20
2018-09-28T01:44:51.547Z,3.73
2018-09-28T01:47:26.578Z,6.50
2018-09-28T01:49:53.698Z,6.97
2018-09-28T01:52:20.801Z,5.23
2018-09-28T01:54:47.914Z,9.77
2018-09-28T01:57:14.993Z,6.07
2018-09-28T01:59:42.112Z,7.07
2018-09-28T02:02:09.214Z,5.93
2018-09-28T02:04:36.321Z,6.67
2018-09-28T02:07:03.421Z,6.40
2018-09-28T02:09:30.569Z,5.10
2018-09-28T02:11:57.756Z,4.73
2018-09-28T02:14:24.944Z,6.70
2018-09-28T02:16:52.002Z,4.73
2018-09-28T02:19:19.110Z,6.20
2018-09-28T02:21:46.241Z,8.50
2018-09-28T02:24:13.346Z,3.90
2018-09-28T02:26:40.457Z,3.83
2018-09-28T02:29:07.722Z,5.00
2018-09-28T02:31:34.832Z,8.27
2018-09-28T02:34:01.934Z,3.20
2018-09-28T02:36:29.088Z,5.27
2018-09-28T02:38:56.343Z,7.27
2018-09-28T02:41:23.433Z,6.27
2018-09-28T02:43:50.526Z,4.67
2018-09-28T02:46:17.641Z,7.43
2018-09-28T02:48:44.860Z,6.00
2018-09-28T02:51:11.997Z,7.00
2018-09-28T02:53:39.083Z,4.67
2018-09-28T02:56:06.186Z,9.20
2018-09-28T02:58:33.274Z,4.73
2018-09-28T03:01:00.436Z,3.40
2018-09-28T03:03:27.575Z,4.97
2018-09-28T03:05:54.697Z,6.47
2018-09-28T03:08:21.801Z,4.83
2018-09-28T03:10:48.893Z,6.73
2018-09-28T03:13:15.993Z,6.10
2018-09-28T03:15:43.114Z,3.43
2018-09-28T03:18:10.231Z,5.43
2018-09-28T03:20:37.361Z,5.90
2018-09-28T03:23:04.475Z,7.70
2018-09-28T03:25:31.610Z,5.27
2018-09-28T03:27:58.753Z,5.20
2018-09-28T03:30:25.917Z,5.47
2018-09-28T03:32:53.034Z,6.20
2018-09-28T03:35:20.192Z,5.70
2018-09-28T03:37:47.293Z,5.67
2018-09-28T03:40:14.398Z,5.37
2018-09-28T03:42:41.517Z,6.77
2018-09-28T03:45:08.617Z,4.90
2018-09-28T03:47:35.933Z,3.77
2018-09-28T03:50:03.443Z,4.63
2018-09-28T03:52:30.588Z,5.50
2018-09-28T03:54:57.791Z,6.67
2018-09-28T03:57:24.938Z,3.53
2018-09-28T03:59:52.070Z,7.83
2018-09-28T04:02:19.362Z,5.47
2018-09-28T04:04:46.445Z,7.43
2018-09-28T04:07:13.570Z,5.97
2018-09-28T04:09:40.665Z,7.90
2018-09-28T04:12:07.826Z,7.17
2018-09-28T04:14:34.939Z,11.27
2018-09-28T04:17:02.060Z,7.30
2018-09-28T04:19:29.234Z,10.23
2018-09-28T04:21:58.334Z,8.97
2018-09-28T04:24:25.686Z,6.37
2018-09-28T04:26:52.925Z,11.03
2018-09-28T04:29:20.030Z,10.07
2018-09-28T04:31:47.125Z,10.07
2018-09-28T04:34:14.237Z,10.23
2018-09-28T04:36:41.338Z,16.53
2018-09-28T04:39:08.462Z,10.43
2018-09-28T04:41:35.714Z,10.17
2018-09-28T04:44:02.816Z,9.50
2018-09-28T04:46:29.986Z,6.63
2018-09-28T04:48:57.330Z,8.67
2018-09-28T04:51:24.465Z,7.90
2018-09-28T04:53:51.733Z,8.50
2018-09-28T04:56:18.870Z,9.70
2018-09-28T04:58:45.974Z,9.33
2018-09-28T05:01:13.085Z,9.77
2018-09-28T05:03:40.202Z,10.37
2018-09-28T05:06:14.224Z,11.33
2018-09-28T05:08:41.329Z,8.70
2018-09-28T05:11:08.435Z,7.43
2018-09-28T05:13:35.578Z,9.23
2018-09-28T05:16:02.761Z,9.27
2018-09-28T05:18:29.943Z,8.90
2018-09-28T05:20:57.159Z,9.43
2018-09-28T05:23:24.323Z,9.50
2018-09-28T05:25:51.449Z,7.80
2018-09-28T05:28:18.597Z,9.10
2018-09-28T05:30:53.961Z,9.10
2018-09-28T05:33:12.797Z,7.43
2018-09-28T05:35:39.945Z,12.80
2018-09-28T05:38:07.050Z,9.73
2018-09-28T05:40:34.144Z,12.47
2018-09-28T05:43:01.258Z,12.83
2018-09-28T05:45:28.419Z,13.20
2018-09-28T05:47:55.569Z,15.77
2018-09-28T05:50:22.711Z,15.83
2018-09-28T05:52:49.851Z,19.47
2018-09-28T05:55:16.950Z,19.47
2018-09-28T05:57:44.052Z,24.57
2018-09-28T06:00:16.954Z,27.10
2018-09-28T06:02:49.886Z,29.87
2018-09-28T06:05:22.852Z,27.43
2018-09-28T06:07:49.937Z,28.43
2018-09-28T06:10:17.340Z,30.07
2018-09-28T06:12:44.437Z,31.93
2018-09-28T06:15:11.550Z,37.30
2018-09-28T06:17:38.654Z,30.53
2018-09-28T06:20:05.797Z,32.77
2018-09-28T06:22:32.936Z,30.20
2018-09-28T06:25:00.066Z,33.30
2018-09-28T06:27:27.183Z,31.77
2018-09-28T06:29:54.337Z,33.07
2018-09-28T06:32:21.449Z,28.87
2018-09-28T06:34:48.550Z,30.63
2018-09-28T06:37:15.666Z,28.13
2018-09-28T06:39:43.419Z,28.07
2018-09-28T06:42:10.613Z,35.50
2018-09-28T06:44:37.889Z,25.63
2018-09-28T06:47:04.933Z,24.33
2018-09-28T06:49:32.030Z,26.43
2018-09-28T06:51:59.214Z,26.47
2018-09-28T06:54:26.375Z,23.60
2018-09-28T06:56:53.498Z,22.37
2018-09-28T06:59:20.589Z,26.50
2018-09-28T07:01:47.834Z,25.13
2018-09-28T07:04:14.985Z,24.93
2018-09-28T07:06:42.098Z,23.90
2018-09-28T07:09:11.006Z,28.77
2018-09-28T07:11:38.127Z,27.97
2018-09-28T07:14:05.593Z,23.23
2018-09-28T07:16:32.726Z,31.07
2018-09-28T07:18:59.878Z,25.90
2018-09-28T07:21:27.063Z,34.92
2018-09-28T07:23:54.293Z,28.42
2018-09-28T07:26:22.258Z,30.90
2018-09-28T07:28:49.354Z,28.52
2018-09-28T07:31:16.494Z,24.57
2018-09-28T07:33:43.610Z,26.37
2018-09-28T07:36:10.944Z,26.12
2018-09-28T07:38:37.978Z,25.27
2018-09-28T07:41:05.109Z,26.93
2018-09-28T07:43:32.273Z,27.58
2018-09-28T07:45:59.420Z,33.60
2018-09-28T07:48:26.561Z,26.07
2018-09-28T07:50:53.720Z,30.02
2018-09-28T07:53:20.979Z,29.07
2018-09-28T07:55:48.123Z,32.67
2018-09-28T07:58:15.237Z,31.45
2018-09-28T08:00:42.353Z,30.30
2018-09-28T08:03:09.478Z,31.93
2018-09-28T08:05:36.786Z,29.70
2018-09-28T08:08:03.906Z,29.65
2018-09-28T08:10:31.126Z,30.40
2018-09-28T08:12:58.382Z,31.10
2018-09-28T08:15:25.538Z,39.00
2018-09-28T08:17:52.716Z,34.98
2018-09-28T08:20:19.793Z,33.33
2018-09-28T08:22:46.907Z,35.60
2018-09-28T08:25:14.003Z,30.77
2018-09-28T08:27:41.100Z,30.72
2018-09-28T08:30:08.266Z,28.10
2018-09-28T08:32:35.367Z,29.40
2018-09-28T08:35:02.524Z,28.95
2018-09-28T08:37:29.667Z,26.73
2018-09-28T08:39:56.818Z,30.67
2018-09-28T08:42:23.977Z,26.87
2018-09-28T08:44:51.149Z,34.67
2018-09-28T08:47:18.281Z,28.30
2018-09-28T08:49:45.403Z,26.93
2018-09-28T08:52:12.576Z,24.40
2018-09-28T08:54:39.671Z,24.30
2018-09-28T08:57:06.765Z,25.00
2018-09-28T08:59:33.875Z,22.17
2018-09-28T09:02:01.040Z,20.37
2018-09-28T09:04:28.185Z,25.83
2018-09-28T09:06:55.350Z,23.83
2018-09-28T09:09:22.451Z,22.10
2018-09-28T09:11:49.546Z,20.10
2018-09-28T09:14:16.743Z,22.83
2018-09-28T09:16:43.862Z,19.80
2018-09-28T09:19:11.012Z,21.53
2018-09-28T09:21:38.122Z,24.30
2018-09-28T09:24:05.640Z,18.40
2018-09-28T09:26:32.665Z,19.43
2018-09-28T09:28:59.833Z,29.23
2018-09-28T09:31:27.070Z,16.83
2018-09-28T09:33:54.238Z,21.00
2018-09-28T09:36:21.355Z,21.30
2018-09-28T09:38:48.440Z,22.60
2018-09-28T09:41:15.550Z,19.57
2018-09-28T09:43:42.665Z,21.07
2018-09-28T09:46:09.773Z,21.63
2018-09-28T09:48:36.954Z,16.97
2018-09-28T09:51:03.993Z,25.03
2018-09-28T09:53:31.136Z,17.97
2018-09-28T09:55:58.286Z,24.00
2018-09-28T09:58:25.482Z,19.23
2018-09-28T10:00:58.305Z,17.97
2018-09-28T10:03:31.250Z,17.50
2018-09-28T10:05:58.427Z,18.10
2018-09-28T10:08:25.625Z,21.57
2018-09-28T10:10:52.744Z,15.90
2018-09-28T10:13:19.856Z,19.27
2018-09-28T10:15:46.953Z,13.90
2018-09-28T10:18:14.072Z,14.63
2018-09-28T10:20:41.161Z,10.60
2018-09-28T10:23:08.253Z,7.40
2018-09-28T10:25:35.401Z,9.93
2018-09-28T10:28:02.510Z,8.97
2018-09-28T10:30:29.720Z,9.23
2018-09-28T10:32:56.907Z,10.20
2018-09-28T10:35:24.085Z,11.87
2018-09-28T10:37:51.348Z,11.57
2018-09-28T10:40:18.524Z,7.63
2018-09-28T10:42:45.604Z,9.87
2018-09-28T10:45:12.752Z,11.60
2018-09-28T10:47:39.849Z,11.73
2018-09-28T10:50:06.978Z,8.33
2018-09-28T10:52:34.314Z,6.57
2018-09-28T10:55:01.364Z,15.60
2018-09-28T10:57:28.567Z,7.90
2018-09-28T10:59:55.839Z,11.07
2018-09-28T11:02:22.936Z,10.60
2018-09-28T11:04:50.122Z,9.47
2018-09-28T11:07:17.140Z,12.87
2018-09-28T11:09:44.312Z,18.23
2018-09-28T11:12:11.362Z,11.60
2018-09-28T11:14:38.462Z,10.60
2018-09-28T11:17:05.626Z,9.83
2018-09-28T11:19:32.723Z,9.90
2018-09-28T11:21:59.863Z,9.90
2018-09-28T11:24:27.230Z,12.30
2018-09-28T11:26:54.451Z,13.50
2018-09-28T11:29:21.533Z,17.10
2018-09-28T11:31:48.622Z,9.83
2018-09-28T11:34:15.716Z,10.07
2018-09-28T11:36:42.834Z,7.00
2018-09-28T11:39:09.948Z,10.57
2018-09-28T11:41:37.049Z,8.90
2018-09-28T11:44:04.206Z,9.07
2018-09-28T11:46:31.314Z,9.97
2018-09-28T11:48:58.837Z,12.67
2018-09-28T11:51:26.058Z,6.17
2018-09-28T11:53:53.134Z,9.50
2018-09-28T11:56:20.240Z,7.90
2018-09-28T11:58:47.321Z,6.63
2018-09-28T12:01:14.434Z,8.67
2018-09-28T12:03:41.550Z,6.77
2018-09-28T12:06:08.707Z,9.23
2018-09-28T12:08:35.773Z,14.37
2018-09-28T12:11:03.330Z,6.00
2018-09-28T12:13:30.447Z,7.33
2018-09-28T12:15:57.580Z,13.03
2018-09-28T12:18:24.808Z,5.97
2018-09-28T12:20:51.883Z,7.23
2018-09-28T12:23:18.981Z,7.03
2018-09-28T12:25:46.099Z,9.03
2018-09-28T12:28:13.211Z,6.67
2018-09-28T12:30:40.345Z,7.17
2018-09-28T12:33:07.438Z,8.03
2018-09-28T12:35:34.842Z,11.37
2018-09-28T12:38:02.159Z,7.43
2018-09-28T12:40:29.301Z,10.00
2018-09-28T12:42:56.502Z,6.17
2018-09-28T12:45:23.679Z,7.27
2018-09-28T12:47:50.748Z,5.67
2018-09-28T12:50:17.904Z,7.63
2018-09-28T12:52:45.047Z,5.13
2018-09-28T12:55:12.173Z,8.10
2018-09-28T12:57:39.350Z,8.20
2018-09-28T13:00:06.525Z,6.97
2018-09-28T13:02:33.648Z,5.43
2018-09-28T13:05:00.794Z,9.33
2018-09-28T13:07:27.962Z,6.20
2018-09-28T13:09:55.170Z,5.27
2018-09-28T13:12:22.328Z,6.00
2018-09-28T13:14:49.470Z,7.57
2018-09-28T13:17:16.513Z,8.47
2018-09-28T13:19:43.601Z,9.13
2018-09-28T13:22:10.702Z,7.10
2018-09-28T13:24:37.876Z,9.73
2018-09-28T13:27:05.256Z,6.20
2018-09-28T13:29:32.359Z,6.73
2018-09-28T13:31:59.623Z,9.00
2018-09-28T13:34:27.128Z,8.03
2018-09-28T13:36:54.274Z,10.13
2018-09-28T13:39:21.400Z,10.47
2018-09-28T13:41:48.491Z,6.23
2018-09-28T13:44:15.650Z,10.57
2018-09-28T13:46:42.751Z,14.50
2018-09-28T13:49:09.877Z,7.17
2018-09-28T13:51:37.010Z,13.87
2018-09-28T13:54:04.129Z,17.00
2018-09-28T13:56:31.248Z,7.53
2018-09-28T13:58:58.439Z,7.77
2018-09-28T14:01:25.803Z,9.00
2018-09-28T14:03:52.921Z,14.73
2018-09-28T14:06:20.148Z,11.23
2018-09-28T14:08:47.342Z,10.37
2018-09-28T14:11:14.415Z,18.40
2018-09-28T14:13:41.535Z,14.47
2018-09-28T14:16:08.738Z,11.90
2018-09-28T14:18:35.833Z,13.50
2018-09-28T14:21:02.977Z,13.20
2018-09-28T14:23:30.151Z,9.37
2018-09-28T14:25:57.432Z,9.33
2018-09-28T14:28:24.697Z,7.03
2018-09-28T14:30:51.822Z,12.23
2018-09-28T14:33:18.829Z,11.00
2018-09-28T14:35:45.930Z,7.17
2018-09-28T14:38:13.166Z,9.90
2018-09-28T14:40:40.325Z,10.30
2018-09-28T14:43:07.537Z,12.73
2018-09-28T14:45:34.729Z,11.20
2018-09-28T14:48:02.079Z,13.83
2018-09-28T14:50:29.281Z,11.20
2018-09-28T14:52:56.669Z,11.50
2018-09-28T14:55:23.874Z,9.97
2018-09-28T14:57:51.028Z,15.23
2018-09-28T15:00:18.264Z,12.23
2018-09-28T15:02:45.321Z,11.03
2018-09-28T15:05:12.411Z,10.50
2018-09-28T15:07:39.586Z,10.33
2018-09-28T15:10:06.693Z,11.57
2018-09-28T15:12:34.113Z,10.47
2018-09-28T15:15:01.371Z,8.73
2018-09-28T15:17:28.495Z,8.73
2018-09-28T15:19:55.597Z,7.30
2018-09-28T15:22:22.741Z,8.27
2018-09-28T15:24:49.909Z,7.20
2018-09-28T15:27:17.331Z,4.30
2018-09-28T15:29:44.562Z,4.23
2018-09-28T15:32:11.715Z,7.33
2018-09-28T15:34:38.869Z,5.90
2018-09-28T15:37:06.066Z,5.90
2018-09-28T15:39:33.189Z,7.63
2018-09-28T15:42:00.303Z,4.50
2018-09-28T15:44:27.392Z,6.60
2018-09-28T15:46:54.502Z,6.37
2018-09-28T15:49:21.614Z,6.57
2018-09-28T15:51:48.712Z,5.23
2018-09-28T15:54:15.821Z,7.87
2018-09-28T15:56:42.930Z,5.77
2018-09-28T15:59:10.111Z,3.80
2018-09-28T16:01:37.369Z,8.27
2018-09-28T16:04:04.520Z,6.40
2018-09-28T16:06:31.627Z,7.40
2018-09-28T16:08:58.731Z,4.67
2018-09-28T16:11:25.847Z,5.20
2018-09-28T16:13:52.943Z,4.43
2018-09-28T16:16:20.034Z,4.13
2018-09-28T16:18:47.214Z,9.10
2018-09-28T16:21:14.314Z,5.03
2018-09-28T16:23:41.467Z,8.03
2018-09-28T16:26:08.621Z,6.37
2018-09-28T16:28:35.758Z,4.73
2018-09-28T16:31:02.881Z,2.93
2018-09-28T16:33:29.980Z,7.97
2018-09-28T16:35:57.173Z,5.33
2018-09-28T16:38:24.234Z,5.93
2018-09-28T16:40:51.371Z,6.10
2018-09-28T16:43:18.796Z,10.10
2018-09-28T16:45:45.950Z,6.13
2018-09-28T16:48:13.062Z,5.20
2018-09-28T16:50:40.203Z,11.07
2018-09-28T16:53:07.421Z,10.87
2018-09-28T16:55:34.544Z,3.53
2018-09-28T16:58:01.667Z,7.50
2018-09-28T17:00:28.908Z,7.63
2018-09-28T17:02:56.005Z,11.73
2018-09-28T17:05:23.118Z,7.30
2018-09-28T17:07:50.718Z,7.77
2018-09-28T17:10:17.822Z,16.97
2018-09-28T17:12:45.231Z,6.07
2018-09-28T17:15:12.627Z,8.40
2018-09-28T17:17:39.817Z,5.43
2018-09-28T17:20:07.239Z,9.00
2018-09-28T17:22:34.668Z,5.97
2018-09-28T17:25:02.011Z,6.50
2018-09-28T17:27:29.093Z,9.83
2018-09-28T17:29:56.190Z,7.67
2018-09-28T17:32:23.273Z,10.10
2018-09-28T17:34:50.393Z,10.37
2018-09-28T17:37:17.618Z,10.30
2018-09-28T17:39:45.205Z,8.70
2018-09-28T17:42:12.443Z,14.27
2018-09-28T17:44:40.094Z,5.93
2018-09-28T17:47:07.339Z,8.40
2018-09-28T17:49:34.559Z,7.83
2018-09-28T17:52:01.710Z,11.27
2018-09-28T17:54:28.801Z,8.57
2018-09-28T17:56:55.896Z,8.63
2018-09-28T17:59:22.987Z,10.97
2018-09-28T18:01:50.102Z,5.00
2018-09-28T18:04:17.190Z,12.37
2018-09-28T18:06:44.319Z,10.30
2018-09-28T18:09:12.271Z,9.27
2018-09-28T18:11:39.531Z,7.13
2018-09-28T18:14:06.949Z,10.20
2018-09-28T18:16:34.049Z,9.57
2018-09-28T18:19:01.137Z,10.37
2018-09-28T18:21:28.249Z,9.60
2018-09-28T18:23:55.360Z,11.00
2018-09-28T18:26:22.483Z,10.20
2018-09-28T18:28:49.582Z,10.23
2018-09-28T18:31:16.704Z,8.43
2018-09-28T18:33:44.341Z,7.50
2018-09-28T18:36:12.478Z,7.77
2018-09-28T18:38:40.574Z,10.87
2018-09-28T18:41:08.345Z,13.93
2018-09-28T18:43:36.207Z,5.27
2018-09-28T18:46:04.700Z,11.60
2018-09-28T18:48:32.337Z,12.27
2018-09-28T18:51:00.731Z,5.83
2018-09-28T18:53:28.918Z,17.57
2018-09-28T18:55:57.282Z,14.37
2018-09-28T18:58:25.028Z,12.33
2018-09-28T19:00:52.232Z,14.90
2018-09-28T19:03:19.387Z,13.50
2018-09-28T19:05:46.658Z,11.00
2018-09-28T19:08:13.719Z,9.57
2018-09-28T19:10:40.883Z,9.43
2018-09-28T19:13:08.214Z,9.50
2018-09-28T19:15:35.295Z,7.20
2018-09-28T19:18:02.418Z,7.20
2018-09-28T19:20:29.506Z,11.33
2018-09-28T19:22:56.601Z,10.17
2018-09-28T19:25:23.692Z,11.27
2018-09-28T19:27:50.798Z,9.03
2018-09-28T19:30:17.940Z,10.23
2018-09-28T19:32:45.046Z,10.10
2018-09-28T19:35:12.500Z,9.40
2018-09-28T19:37:39.656Z,12.20
2018-09-28T19:40:06.831Z,10.20
2018-09-28T19:42:33.913Z,8.50
2018-09-28T19:45:00.994Z,13.93
2018-09-28T19:47:28.070Z,9.60
2018-09-28T19:49:55.179Z,9.70
2018-09-28T19:52:22.292Z,8.70
2018-09-28T19:54:49.413Z,6.90
2018-09-28T19:57:16.525Z,13.30
2018-09-28T19:59:43.669Z,10.97
2018-09-28T20:02:10.891Z,13.80
2018-09-28T20:04:38.015Z,10.87
2018-09-28T20:07:05.385Z,12.97
2018-09-28T20:09:32.507Z,12.93
2018-09-28T20:11:59.628Z,7.30
2018-09-28T20:14:26.738Z,6.43
2018-09-28T20:16:53.867Z,7.83
2018-09-28T20:19:20.993Z,8.13
2018-09-28T20:21:48.113Z,5.27
2018-09-28T20:24:15.224Z,8.07
2018-09-28T20:26:42.382Z,6.40
2018-09-28T20:29:09.531Z,2.83
2018-09-28T20:31:36.686Z,7.10
2018-09-28T20:34:03.836Z,9.23
2018-09-28T20:36:31.004Z,9.40
2018-09-28T20:38:58.185Z,9.10
2018-09-28T20:41:25.349Z,9.77
2018-09-28T20:43:52.500Z,7.30
2018-09-28T20:46:19.607Z,11.37
2018-09-28T20:48:46.719Z,6.53
2018-09-28T20:51:13.801Z,9.77
2018-09-28T20:53:40.922Z,13.00
2018-09-28T20:56:08.094Z,9.07
2018-09-28T20:58:35.211Z,7.50
2018-09-28T21:01:02.348Z,8.87
2018-09-28T21:03:29.402Z,5.33
2018-09-28T21:05:56.502Z,12.27
2018-09-28T21:08:23.584Z,7.03
2018-09-28T21:10:50.709Z,7.00
2018-09-28T21:13:17.791Z,6.17
2018-09-28T21:15:44.937Z,4.67
2018-09-28T21:18:12.085Z,10.87
2018-09-28T21:20:39.233Z,4.93
2018-09-28T21:23:06.383Z,6.63
2018-09-28T21:25:33.481Z,9.27
2018-09-28T21:28:00.565Z,8.40
2018-09-28T21:30:28.412Z,8.60
2018-09-28T21:32:56.747Z,4.63
2018-09-28T21:35:23.845Z,6.83
2018-09-28T21:37:50.937Z,5.33
2018-09-28T21:40:18.028Z,5.00
2018-09-28T21:42:45.438Z,6.00
2018-09-28T21:45:12.525Z,6.73
2018-09-28T21:47:39.688Z,3.50
2018-09-28T21:50:06.927Z,8.83
2018-09-28T21:52:34.026Z,6.07
2018-09-28T21:55:01.114Z,6.93
2018-09-28T21:57:28.209Z,6.03
2018-09-28T21:59:55.356Z,6.37
2018-09-28T22:02:22.433Z,7.20
2018-09-28T22:04:49.598Z,7.77
2018-09-28T22:07:16.667Z,6.33
2018-09-28T22:09:43.793Z,4.50
2018-09-28T22:12:10.931Z,6.57
2018-09-28T22:14:38.121Z,16.73
2018-09-28T22:17:05.273Z,8.07
2018-09-28T22:19:32.361Z,5.93
2018-09-28T22:21:59.453Z,9.40
2018-09-28T22:24:26.543Z,8.73
2018-09-28T22:26:53.697Z,5.30
2018-09-28T22:29:20.826Z,4.33
2018-09-28T22:31:47.943Z,4.70
2018-09-28T22:34:15.037Z,8.27
2018-09-28T22:36:42.204Z,5.30
2018-09-28T22:39:10.533Z,6.10
2018-09-28T22:41:37.961Z,5.33
2018-09-28T22:44:05.537Z,10.43
2018-09-28T22:46:32.634Z,7.27
2018-09-28T22:48:59.955Z,6.70
2018-09-28T22:51:27.066Z,4.40
2018-09-28T22:53:54.186Z,4.77
2018-09-28T22:56:21.313Z,4.03
2018-09-28T22:58:48.421Z,3.23
2018-09-28T23:01:15.574Z,12.97
2018-09-28T23:03:42.829Z,3.80
2018-09-28T23:06:10.082Z,7.80
2018-09-28T23:08:37.369Z,3.70
2018-09-28T23:11:04.493Z,10.87
2018-09-28T23:13:31.590Z,9.73
2018-09-28T23:15:58.706Z,4.83
2018-09-28T23:18:25.800Z,5.10
2018-09-28T23:20:52.901Z,2.70
2018-09-28T23:23:20.015Z,6.23
2018-09-28T23:25:47.139Z,8.47
2018-09-28T23:28:14.269Z,6.13
2018-09-28T23:30:41.428Z,7.20
2018-09-28T23:33:08.741Z,7.83
2018-09-28T23:35:35.886Z,6.17
2018-09-28T23:38:02.994Z,3.57
2018-09-28T23:40:30.129Z,5.97
2018-09-28T23:42:57.217Z,6.47
2018-09-28T23:45:24.451Z,7.10
2018-09-28T23:47:51.565Z,5.13
2018-09-28T23:50:18.669Z,6.10
2018-09-28T23:52:45.784Z,8.20
2018-09-28T23:55:12.983Z,6.73
2018-09-28T23:57:40.114Z,3.53
